sensor_id;sensor_type;location;lat;lon;timestamp;temperature;humidity
2763;DHT22;1389;51.490;7.338;2023-03-30T00:00:52;13.00;81.90
2763;DHT22;1389;51.490;7.338;2023-03-30T00:03:18;13.00;81.80
2763;DHT22;1389;51.490;7.338;2023-03-30T00:05:48;13.00;81.80
2763;DHT22;1389;51.490;7.338;2023-03-30T00:08:17;13.00;81.70
2763;DHT22;1389;51.490;7.338;2023-03-30T00:10:44;13.00;81.70
2763;DHT22;1389;51.490;7.338;2023-03-30T00:13:11;13.00;81.70
2763;DHT22;1389;51.490;7.338;2023-03-30T00:15:38;12.90;81.50
2763;DHT22;1389;51.490;7.338;2023-03-30T00:18:04;12.90;81.60
2763;DHT22;1389;51.490;7.338;2023-03-30T00:20:30;12.90;81.90
2763;DHT22;1389;51.490;7.338;2023-03-30T00:22:59;12.80;81.90
2763;DHT22;1389;51.490;7.338;2023-03-30T00:25:25;12.80;81.90
2763;DHT22;1389;51.490;7.338;2023-03-30T00:27:51;12.70;82.00
2763;DHT22;1389;51.490;7.338;2023-03-30T00:30:18;12.70;82.10
2763;DHT22;1389;51.490;7.338;2023-03-30T00:32:45;12.70;82.10
2763;DHT22;1389;51.490;7.338;2023-03-30T00:35:12;12.70;82.20
2763;DHT22;1389;51.490;7.338;2023-03-30T00:37:40;12.70;82.00
2763;DHT22;1389;51.490;7.338;2023-03-30T00:40:08;12.70;82.00
2763;DHT22;1389;51.490;7.338;2023-03-30T00:42:35;12.70;82.00
2763;DHT22;1389;51.490;7.338;2023-03-30T00:45:21;12.70;81.90
2763;DHT22;1389;51.490;7.338;2023-03-30T00:48:00;12.70;82.00
2763;DHT22;1389;51.490;7.338;2023-03-30T00:50:48;12.70;82.00
2763;DHT22;1389;51.490;7.338;2023-03-30T00:53:20;12.70;82.00
2763;DHT22;1389;51.490;7.338;2023-03-30T00:55:49;12.70;82.10
2763;DHT22;1389;51.490;7.338;2023-03-30T00:58:16;12.70;82.00
2763;DHT22;1389;51.490;7.338;2023-03-30T01:00:43;12.70;81.90
2763;DHT22;1389;51.490;7.338;2023-03-30T01:06:18;12.70;81.80
2763;DHT22;1389;51.490;7.338;2023-03-30T01:08:52;12.70;81.50
2763;DHT22;1389;51.490;7.338;2023-03-30T01:11:19;12.60;81.40
2763;DHT22;1389;51.490;7.338;2023-03-30T01:13:48;12.60;81.60
2763;DHT22;1389;51.490;7.338;2023-03-30T01:16:32;12.60;81.50
2763;DHT22;1389;51.490;7.338;2023-03-30T01:33:55;12.50;82.00
2763;DHT22;1389;51.490;7.338;2023-03-30T01:39:21;12.40;82.20
2763;DHT22;1389;51.490;7.338;2023-03-30T01:42:19;12.40;82.30
2763;DHT22;1389;51.490;7.338;2023-03-30T01:45:00;12.50;82.10
2763;DHT22;1389;51.490;7.338;2023-03-30T01:50:24;12.80;81.00
2763;DHT22;1389;51.490;7.338;2023-03-30T01:55:32;13.10;79.50
2763;DHT22;1389;51.490;7.338;2023-03-30T02:00:35;13.20;79.00
2763;DHT22;1389;51.490;7.338;2023-03-30T02:03:13;13.30;78.20
2763;DHT22;1389;51.490;7.338;2023-03-30T02:05:41;13.40;78.10
2763;DHT22;1389;51.490;7.338;2023-03-30T02:08:12;13.50;77.90
2763;DHT22;1389;51.490;7.338;2023-03-30T02:10:42;13.50;77.40
2763;DHT22;1389;51.490;7.338;2023-03-30T02:13:08;13.60;76.90
2763;DHT22;1389;51.490;7.338;2023-03-30T02:15:47;13.70;76.40
2763;DHT22;1389;51.490;7.338;2023-03-30T02:18:15;13.80;75.80
2763;DHT22;1389;51.490;7.338;2023-03-30T02:20:41;13.90;74.90
2763;DHT22;1389;51.490;7.338;2023-03-30T02:23:08;14.00;75.30
2763;DHT22;1389;51.490;7.338;2023-03-30T02:25:34;14.00;75.50
2763;DHT22;1389;51.490;7.338;2023-03-30T02:28:04;14.00;75.70
2763;DHT22;1389;51.490;7.338;2023-03-30T02:30:34;14.10;75.00
2763;DHT22;1389;51.490;7.338;2023-03-30T02:33:02;14.10;74.80
2763;DHT22;1389;51.490;7.338;2023-03-30T02:38:35;14.30;74.20
2763;DHT22;1389;51.490;7.338;2023-03-30T02:41:12;14.40;73.90
2763;DHT22;1389;51.490;7.338;2023-03-30T02:46:40;14.50;73.10
2763;DHT22;1389;51.490;7.338;2023-03-30T02:51:52;14.60;73.60
2763;DHT22;1389;51.490;7.338;2023-03-30T02:55:03;14.50;73.80
2763;DHT22;1389;51.490;7.338;2023-03-30T03:00:01;14.50;73.50
2763;DHT22;1389;51.490;7.338;2023-03-30T03:02:41;14.50;73.50
2763;DHT22;1389;51.490;7.338;2023-03-30T03:05:10;14.50;73.80
2763;DHT22;1389;51.490;7.338;2023-03-30T03:07:38;14.50;72.90
2763;DHT22;1389;51.490;7.338;2023-03-30T03:10:06;14.60;73.10
2763;DHT22;1389;51.490;7.338;2023-03-30T03:12:33;14.60;73.30
2763;DHT22;1389;51.490;7.338;2023-03-30T03:14:59;14.60;73.60
2763;DHT22;1389;51.490;7.338;2023-03-30T03:17:30;14.60;73.70
2763;DHT22;1389;51.490;7.338;2023-03-30T03:20:00;14.50;73.60
2763;DHT22;1389;51.490;7.338;2023-03-30T03:22:27;14.50;73.60
2763;DHT22;1389;51.490;7.338;2023-03-30T03:24:53;14.50;73.60
2763;DHT22;1389;51.490;7.338;2023-03-30T03:27:19;14.60;72.80
2763;DHT22;1389;51.490;7.338;2023-03-30T03:29:45;14.60;73.00
2763;DHT22;1389;51.490;7.338;2023-03-30T03:32:12;14.60;72.30
2763;DHT22;1389;51.490;7.338;2023-03-30T03:34:38;14.70;72.40
2763;DHT22;1389;51.490;7.338;2023-03-30T03:37:04;14.70;72.40
2763;DHT22;1389;51.490;7.338;2023-03-30T03:39:30;14.80;71.80
2763;DHT22;1389;51.490;7.338;2023-03-30T03:41:56;14.90;71.60
2763;DHT22;1389;51.490;7.338;2023-03-30T03:44:22;15.00;71.60
2763;DHT22;1389;51.490;7.338;2023-03-30T03:46:49;15.00;70.90
2763;DHT22;1389;51.490;7.338;2023-03-30T03:49:15;15.20;70.40
2763;DHT22;1389;51.490;7.338;2023-03-30T03:51:41;15.30;70.20
2763;DHT22;1389;51.490;7.338;2023-03-30T03:54:07;15.40;69.90
2763;DHT22;1389;51.490;7.338;2023-03-30T03:56:33;15.40;69.90
2763;DHT22;1389;51.490;7.338;2023-03-30T03:58:59;15.40;70.20
2763;DHT22;1389;51.490;7.338;2023-03-30T04:01:28;15.40;70.10
2763;DHT22;1389;51.490;7.338;2023-03-30T04:03:55;15.40;69.40
2763;DHT22;1389;51.490;7.338;2023-03-30T04:06:21;15.40;70.50
2763;DHT22;1389;51.490;7.338;2023-03-30T04:08:47;15.40;70.30
2763;DHT22;1389;51.490;7.338;2023-03-30T04:11:13;15.40;70.10
2763;DHT22;1389;51.490;7.338;2023-03-30T04:13:39;15.50;69.90
2763;DHT22;1389;51.490;7.338;2023-03-30T04:16:06;15.50;69.60
2763;DHT22;1389;51.490;7.338;2023-03-30T04:18:33;15.50;70.40
2763;DHT22;1389;51.490;7.338;2023-03-30T04:21:01;15.50;70.10
2763;DHT22;1389;51.490;7.338;2023-03-30T04:23:34;15.40;71.00
2763;DHT22;1389;51.490;7.338;2023-03-30T04:26:01;15.40;71.20
2763;DHT22;1389;51.490;7.338;2023-03-30T04:28:28;15.30;71.60
2763;DHT22;1389;51.490;7.338;2023-03-30T04:31:02;15.30;71.30
2763;DHT22;1389;51.490;7.338;2023-03-30T04:33:29;15.30;71.10
2763;DHT22;1389;51.490;7.338;2023-03-30T04:35:55;15.30;71.00
2763;DHT22;1389;51.490;7.338;2023-03-30T04:38:21;15.30;70.60
2763;DHT22;1389;51.490;7.338;2023-03-30T04:40:51;15.40;70.70
2763;DHT22;1389;51.490;7.338;2023-03-30T04:43:18;15.40;70.90
2763;DHT22;1389;51.490;7.338;2023-03-30T04:45:52;15.60;70.20
2763;DHT22;1389;51.490;7.338;2023-03-30T04:48:19;15.60;70.10
2763;DHT22;1389;51.490;7.338;2023-03-30T04:50:47;15.60;70.40
2763;DHT22;1389;51.490;7.338;2023-03-30T04:53:15;15.60;69.70
2763;DHT22;1389;51.490;7.338;2023-03-30T04:55:45;15.50;70.30
2763;DHT22;1389;51.490;7.338;2023-03-30T04:58:12;15.50;70.70
2763;DHT22;1389;51.490;7.338;2023-03-30T05:00:38;15.50;70.70
2763;DHT22;1389;51.490;7.338;2023-03-30T05:03:04;15.50;70.90
2763;DHT22;1389;51.490;7.338;2023-03-30T05:05:31;15.50;70.60
2763;DHT22;1389;51.490;7.338;2023-03-30T05:07:58;15.50;71.10
2763;DHT22;1389;51.490;7.338;2023-03-30T05:10:24;15.50;71.30
2763;DHT22;1389;51.490;7.338;2023-03-30T05:12:53;15.50;71.30
2763;DHT22;1389;51.490;7.338;2023-03-30T05:15:20;15.40;71.60
2763;DHT22;1389;51.490;7.338;2023-03-30T05:17:46;15.40;72.10
2763;DHT22;1389;51.490;7.338;2023-03-30T05:20:12;15.30;72.60
2763;DHT22;1389;51.490;7.338;2023-03-30T05:22:40;15.20;73.20
2763;DHT22;1389;51.490;7.338;2023-03-30T05:25:06;15.10;73.40
2763;DHT22;1389;51.490;7.338;2023-03-30T05:27:32;15.10;73.60
2763;DHT22;1389;51.490;7.338;2023-03-30T05:29:59;15.00;73.10
2763;DHT22;1389;51.490;7.338;2023-03-30T05:32:25;15.10;72.90
2763;DHT22;1389;51.490;7.338;2023-03-30T05:34:51;15.20;72.30
2763;DHT22;1389;51.490;7.338;2023-03-30T05:37:17;15.20;72.40
2763;DHT22;1389;51.490;7.338;2023-03-30T05:39:43;15.30;72.30
2763;DHT22;1389;51.490;7.338;2023-03-30T05:42:10;15.30;71.90
2763;DHT22;1389;51.490;7.338;2023-03-30T05:44:36;15.40;71.60
2763;DHT22;1389;51.490;7.338;2023-03-30T05:47:02;15.40;71.50
2763;DHT22;1389;51.490;7.338;2023-03-30T05:49:28;15.40;71.70
2763;DHT22;1389;51.490;7.338;2023-03-30T05:51:54;15.50;71.30
2763;DHT22;1389;51.490;7.338;2023-03-30T05:54:20;15.50;71.90
2763;DHT22;1389;51.490;7.338;2023-03-30T05:56:46;15.50;72.00
2763;DHT22;1389;51.490;7.338;2023-03-30T05:59:13;15.50;71.90
2763;DHT22;1389;51.490;7.338;2023-03-30T06:01:39;15.50;71.90
2763;DHT22;1389;51.490;7.338;2023-03-30T06:04:05;15.50;71.70
2763;DHT22;1389;51.490;7.338;2023-03-30T06:06:31;15.40;71.60
2763;DHT22;1389;51.490;7.338;2023-03-30T06:08:57;15.40;71.90
2763;DHT22;1389;51.490;7.338;2023-03-30T06:11:23;15.40;72.40
2763;DHT22;1389;51.490;7.338;2023-03-30T06:13:49;15.40;72.20
2763;DHT22;1389;51.490;7.338;2023-03-30T06:16:15;15.30;72.40
2763;DHT22;1389;51.490;7.338;2023-03-30T06:18:41;15.30;72.50
2763;DHT22;1389;51.490;7.338;2023-03-30T06:21:07;15.30;72.70
2763;DHT22;1389;51.490;7.338;2023-03-30T06:23:34;15.30;72.80
2763;DHT22;1389;51.490;7.338;2023-03-30T06:26:02;15.30;73.00
2763;DHT22;1389;51.490;7.338;2023-03-30T06:28:29;15.30;72.90
2763;DHT22;1389;51.490;7.338;2023-03-30T06:30:55;15.30;72.70
2763;DHT22;1389;51.490;7.338;2023-03-30T06:33:22;15.20;73.20
2763;DHT22;1389;51.490;7.338;2023-03-30T06:35:50;15.20;73.40
2763;DHT22;1389;51.490;7.338;2023-03-30T06:38:18;15.20;73.20
2763;DHT22;1389;51.490;7.338;2023-03-30T06:40:44;15.20;73.00
2763;DHT22;1389;51.490;7.338;2023-03-30T06:43:17;15.30;72.80
2763;DHT22;1389;51.490;7.338;2023-03-30T06:45:51;15.30;72.70
2763;DHT22;1389;51.490;7.338;2023-03-30T06:48:19;15.30;72.50
2763;DHT22;1389;51.490;7.338;2023-03-30T06:50:46;15.30;73.20
2763;DHT22;1389;51.490;7.338;2023-03-30T06:53:12;15.30;72.70
2763;DHT22;1389;51.490;7.338;2023-03-30T06:55:38;15.30;72.60
2763;DHT22;1389;51.490;7.338;2023-03-30T06:58:05;15.40;72.60
2763;DHT22;1389;51.490;7.338;2023-03-30T07:00:32;15.40;72.90
2763;DHT22;1389;51.490;7.338;2023-03-30T07:02:58;15.40;72.60
2763;DHT22;1389;51.490;7.338;2023-03-30T07:05:24;15.50;72.90
2763;DHT22;1389;51.490;7.338;2023-03-30T07:07:50;15.60;72.40
2763;DHT22;1389;51.490;7.338;2023-03-30T07:10:17;15.70;72.70
2763;DHT22;1389;51.490;7.338;2023-03-30T07:12:43;15.70;72.70
2763;DHT22;1389;51.490;7.338;2023-03-30T07:15:10;15.80;72.20
2763;DHT22;1389;51.490;7.338;2023-03-30T07:17:36;15.90;72.30
2763;DHT22;1389;51.490;7.338;2023-03-30T07:20:03;16.00;71.70
2763;DHT22;1389;51.490;7.338;2023-03-30T07:22:30;16.00;71.50
2763;DHT22;1389;51.490;7.338;2023-03-30T07:24:56;15.90;71.50
2763;DHT22;1389;51.490;7.338;2023-03-30T07:27:23;15.90;72.00
2763;DHT22;1389;51.490;7.338;2023-03-30T07:29:50;15.90;72.20
2763;DHT22;1389;51.490;7.338;2023-03-30T07:32:17;15.90;71.70
2763;DHT22;1389;51.490;7.338;2023-03-30T07:34:44;15.90;71.20
2763;DHT22;1389;51.490;7.338;2023-03-30T07:37:11;15.80;71.90
2763;DHT22;1389;51.490;7.338;2023-03-30T07:39:37;15.80;71.60
2763;DHT22;1389;51.490;7.338;2023-03-30T07:42:04;15.80;71.50
2763;DHT22;1389;51.490;7.338;2023-03-30T07:44:31;15.80;71.40
2763;DHT22;1389;51.490;7.338;2023-03-30T07:46:57;15.70;71.10
2763;DHT22;1389;51.490;7.338;2023-03-30T07:49:24;15.70;71.30
2763;DHT22;1389;51.490;7.338;2023-03-30T07:51:51;15.70;71.50
2763;DHT22;1389;51.490;7.338;2023-03-30T07:54:18;15.60;71.70
2763;DHT22;1389;51.490;7.338;2023-03-30T07:56:44;15.60;72.20
2763;DHT22;1389;51.490;7.338;2023-03-30T07:59:22;15.50;72.40
2763;DHT22;1389;51.490;7.338;2023-03-30T08:01:48;15.50;73.10
2763;DHT22;1389;51.490;7.338;2023-03-30T08:04:20;15.50;72.90
2763;DHT22;1389;51.490;7.338;2023-03-30T08:06:46;15.50;72.80
2763;DHT22;1389;51.490;7.338;2023-03-30T08:09:14;15.50;72.40
2763;DHT22;1389;51.490;7.338;2023-03-30T08:11:40;15.50;72.40
2763;DHT22;1389;51.490;7.338;2023-03-30T08:14:06;15.50;72.70
2763;DHT22;1389;51.490;7.338;2023-03-30T08:16:33;15.50;72.60
2763;DHT22;1389;51.490;7.338;2023-03-30T08:18:59;15.50;73.20
2763;DHT22;1389;51.490;7.338;2023-03-30T08:21:25;15.30;75.10
2763;DHT22;1389;51.490;7.338;2023-03-30T08:23:52;15.20;76.70
2763;DHT22;1389;51.490;7.338;2023-03-30T08:26:19;15.00;77.00
2763;DHT22;1389;51.490;7.338;2023-03-30T08:28:45;14.90;77.80
2763;DHT22;1389;51.490;7.338;2023-03-30T08:31:11;14.80;78.20
2763;DHT22;1389;51.490;7.338;2023-03-30T08:33:38;14.90;78.90
2763;DHT22;1389;51.490;7.338;2023-03-30T08:36:04;15.00;78.20
2763;DHT22;1389;51.490;7.338;2023-03-30T08:38:30;15.10;77.60
2763;DHT22;1389;51.490;7.338;2023-03-30T08:40:57;15.20;75.80
2763;DHT22;1389;51.490;7.338;2023-03-30T08:43:52;15.20;75.80
2763;DHT22;1389;51.490;7.338;2023-03-30T08:46:22;15.10;75.40
2763;DHT22;1389;51.490;7.338;2023-03-30T08:48:49;15.10;75.20
2763;DHT22;1389;51.490;7.338;2023-03-30T08:51:23;15.10;75.30
2763;DHT22;1389;51.490;7.338;2023-03-30T08:54:01;15.00;75.40
2763;DHT22;1389;51.490;7.338;2023-03-30T08:56:36;15.00;75.50
2763;DHT22;1389;51.490;7.338;2023-03-30T09:02:43;15.10;75.80
2763;DHT22;1389;51.490;7.338;2023-03-30T09:07:39;15.20;75.20
2763;DHT22;1389;51.490;7.338;2023-03-30T09:10:12;15.30;74.80
2763;DHT22;1389;51.490;7.338;2023-03-30T09:12:56;15.30;75.20
2763;DHT22;1389;51.490;7.338;2023-03-30T09:15:30;15.40;73.30
2763;DHT22;1389;51.490;7.338;2023-03-30T09:20:27;15.60;73.20
2763;DHT22;1389;51.490;7.338;2023-03-30T09:22:57;15.60;72.50
2763;DHT22;1389;51.490;7.338;2023-03-30T09:28:42;15.70;73.20
2763;DHT22;1389;51.490;7.338;2023-03-30T09:34:01;15.70;71.80
2763;DHT22;1389;51.490;7.338;2023-03-30T09:36:43;15.70;71.80
2763;DHT22;1389;51.490;7.338;2023-03-30T09:39:20;15.60;71.70
2763;DHT22;1389;51.490;7.338;2023-03-30T09:42:14;15.50;71.50
2763;DHT22;1389;51.490;7.338;2023-03-30T09:44:47;15.40;71.60
2763;DHT22;1389;51.490;7.338;2023-03-30T09:47:24;15.50;72.10
2763;DHT22;1389;51.490;7.338;2023-03-30T09:49:58;15.50;72.50
2763;DHT22;1389;51.490;7.338;2023-03-30T09:52:30;15.80;72.10
2763;DHT22;1389;51.490;7.338;2023-03-30T09:57:41;16.10;70.20
2763;DHT22;1389;51.490;7.338;2023-03-30T10:00:31;16.00;70.40
2763;DHT22;1389;51.490;7.338;2023-03-30T10:03:00;16.00;70.00
2763;DHT22;1389;51.490;7.338;2023-03-30T10:05:28;15.80;70.50
2763;DHT22;1389;51.490;7.338;2023-03-30T10:07:58;15.70;70.70
2763;DHT22;1389;51.490;7.338;2023-03-30T10:13:00;15.50;70.40
2763;DHT22;1389;51.490;7.338;2023-03-30T10:15:28;15.40;70.80
2763;DHT22;1389;51.490;7.338;2023-03-30T10:18:01;15.40;70.40
2763;DHT22;1389;51.490;7.338;2023-03-30T10:20:34;15.10;71.10
2763;DHT22;1389;51.490;7.338;2023-03-30T10:23:14;15.10;71.10
2763;DHT22;1389;51.490;7.338;2023-03-30T10:25:41;15.00;72.20
2763;DHT22;1389;51.490;7.338;2023-03-30T10:28:17;14.90;72.90
2763;DHT22;1389;51.490;7.338;2023-03-30T10:30:55;14.80;75.30
2763;DHT22;1389;51.490;7.338;2023-03-30T10:33:22;14.60;77.10
2763;DHT22;1389;51.490;7.338;2023-03-30T10:35:50;14.30;79.10
2763;DHT22;1389;51.490;7.338;2023-03-30T10:38:19;14.00;81.30
2763;DHT22;1389;51.490;7.338;2023-03-30T10:40:45;13.70;82.50
2763;DHT22;1389;51.490;7.338;2023-03-30T10:43:14;13.50;83.90
2763;DHT22;1389;51.490;7.338;2023-03-30T10:45:54;13.40;84.80
2763;DHT22;1389;51.490;7.338;2023-03-30T10:54:35;13.30;87.10
2763;DHT22;1389;51.490;7.338;2023-03-30T10:57:14;13.40;87.00
2763;DHT22;1389;51.490;7.338;2023-03-30T11:05:02;13.80;85.70
2763;DHT22;1389;51.490;7.338;2023-03-30T11:16:11;14.20;85.40
2763;DHT22;1389;51.490;7.338;2023-03-30T11:18:57;14.40;84.40
2763;DHT22;1389;51.490;7.338;2023-03-30T11:24:20;14.70;82.60
2763;DHT22;1389;51.490;7.338;2023-03-30T11:26:48;14.80;82.60
2763;DHT22;1389;51.490;7.338;2023-03-30T11:29:42;14.90;81.50
2763;DHT22;1389;51.490;7.338;2023-03-30T11:32:36;15.00;79.60
2763;DHT22;1389;51.490;7.338;2023-03-30T11:35:11;14.90;79.90
2763;DHT22;1389;51.490;7.338;2023-03-30T11:40:40;14.80;80.00
2763;DHT22;1389;51.490;7.338;2023-03-30T11:43:15;14.90;80.70
2763;DHT22;1389;51.490;7.338;2023-03-30T12:08:41;15.70;75.50
2763;DHT22;1389;51.490;7.338;2023-03-30T12:11:32;15.50;76.10
2763;DHT22;1389;51.490;7.338;2023-03-30T12:14:00;15.40;76.40
2763;DHT22;1389;51.490;7.338;2023-03-30T12:16:39;15.60;76.00
2763;DHT22;1389;51.490;7.338;2023-03-30T12:19:40;15.60;76.30
2763;DHT22;1389;51.490;7.338;2023-03-30T12:22:20;15.70;74.60
2763;DHT22;1389;51.490;7.338;2023-03-30T12:25:11;15.50;74.10
2763;DHT22;1389;51.490;7.338;2023-03-30T12:33:30;14.70;80.80
2763;DHT22;1389;51.490;7.338;2023-03-30T12:38:53;14.60;80.80
2763;DHT22;1389;51.490;7.338;2023-03-30T12:41:28;14.60;81.00
2763;DHT22;1389;51.490;7.338;2023-03-30T12:44:26;14.30;80.70
2763;DHT22;1389;51.490;7.338;2023-03-30T12:55:02;13.00;89.60
2763;DHT22;1389;51.490;7.338;2023-03-30T13:04:08;13.10;89.90
2763;DHT22;1389;51.490;7.338;2023-03-30T13:06:55;13.30;90.80
2763;DHT22;1389;51.490;7.338;2023-03-30T13:22:20;13.00;87.90
2763;DHT22;1389;51.490;7.338;2023-03-30T13:24:57;13.00;87.70
2763;DHT22;1389;51.490;7.338;2023-03-30T13:27:34;13.10;88.00
2763;DHT22;1389;51.490;7.338;2023-03-30T13:41:29;12.90;89.60
2763;DHT22;1389;51.490;7.338;2023-03-30T13:44:05;12.90;90.30
2763;DHT22;1389;51.490;7.338;2023-03-30T13:49:38;13.40;90.30
2763;DHT22;1389;51.490;7.338;2023-03-30T13:52:23;13.60;90.00
2763;DHT22;1389;51.490;7.338;2023-03-30T13:54:52;13.80;89.30
2763;DHT22;1389;51.490;7.338;2023-03-30T13:57:34;14.00;90.10
2763;DHT22;1389;51.490;7.338;2023-03-30T14:00:06;14.20;89.80
2763;DHT22;1389;51.490;7.338;2023-03-30T14:02:38;14.40;88.90
2763;DHT22;1389;51.490;7.338;2023-03-30T14:05:30;14.50;88.70
2763;DHT22;1389;51.490;7.338;2023-03-30T14:07:58;14.50;87.10
2763;DHT22;1389;51.490;7.338;2023-03-30T14:10:24;14.50;87.10
2763;DHT22;1389;51.490;7.338;2023-03-30T14:12:53;14.60;87.70
2763;DHT22;1389;51.490;7.338;2023-03-30T14:15:25;14.70;87.30
2763;DHT22;1389;51.490;7.338;2023-03-30T14:17:58;14.90;84.50
2763;DHT22;1389;51.490;7.338;2023-03-30T14:20:48;14.90;84.40
2763;DHT22;1389;51.490;7.338;2023-03-30T14:23:24;14.90;84.60
2763;DHT22;1389;51.490;7.338;2023-03-30T14:25:57;14.90;83.90
2763;DHT22;1389;51.490;7.338;2023-03-30T14:28:26;14.90;83.10
2763;DHT22;1389;51.490;7.338;2023-03-30T14:30:58;14.90;83.80
2763;DHT22;1389;51.490;7.338;2023-03-30T14:33:28;14.90;83.60
2763;DHT22;1389;51.490;7.338;2023-03-30T14:35:58;14.90;83.20
2763;DHT22;1389;51.490;7.338;2023-03-30T14:38:31;14.90;83.10
2763;DHT22;1389;51.490;7.338;2023-03-30T14:43:38;15.10;82.80
2763;DHT22;1389;51.490;7.338;2023-03-30T14:46:08;15.20;82.80
2763;DHT22;1389;51.490;7.338;2023-03-30T14:48:38;15.30;82.20
2763;DHT22;1389;51.490;7.338;2023-03-30T14:51:17;15.40;80.50
2763;DHT22;1389;51.490;7.338;2023-03-30T14:53:44;15.30;79.70
2763;DHT22;1389;51.490;7.338;2023-03-30T14:56:10;15.30;79.90
2763;DHT22;1389;51.490;7.338;2023-03-30T14:58:37;15.20;79.90
2763;DHT22;1389;51.490;7.338;2023-03-30T15:01:06;15.20;80.10
2763;DHT22;1389;51.490;7.338;2023-03-30T15:03:35;15.00;80.90
2763;DHT22;1389;51.490;7.338;2023-03-30T15:06:04;15.00;79.50
2763;DHT22;1389;51.490;7.338;2023-03-30T15:08:33;14.90;79.10
2763;DHT22;1389;51.490;7.338;2023-03-30T15:11:23;14.70;81.60
2763;DHT22;1389;51.490;7.338;2023-03-30T15:13:55;14.70;81.60
2763;DHT22;1389;51.490;7.338;2023-03-30T15:16:28;14.30;83.50
2763;DHT22;1389;51.490;7.338;2023-03-30T15:19:13;13.90;85.10
2763;DHT22;1389;51.490;7.338;2023-03-30T15:21:43;13.60;86.10
2763;DHT22;1389;51.490;7.338;2023-03-30T15:24:15;13.40;87.20
2763;DHT22;1389;51.490;7.338;2023-03-30T15:26:45;13.40;88.40
2763;DHT22;1389;51.490;7.338;2023-03-30T15:29:14;13.30;89.40
2763;DHT22;1389;51.490;7.338;2023-03-30T15:31:44;13.30;89.50
2763;DHT22;1389;51.490;7.338;2023-03-30T15:34:16;13.30;90.30
2763;DHT22;1389;51.490;7.338;2023-03-30T15:36:42;13.40;90.70
2763;DHT22;1389;51.490;7.338;2023-03-30T15:42:01;13.50;90.80
2763;DHT22;1389;51.490;7.338;2023-03-30T15:44:33;13.50;90.10
2763;DHT22;1389;51.490;7.338;2023-03-30T15:47:00;13.50;90.20
2763;DHT22;1389;51.490;7.338;2023-03-30T15:49:34;13.50;90.60
2763;DHT22;1389;51.490;7.338;2023-03-30T15:52:08;13.50;90.10
2763;DHT22;1389;51.490;7.338;2023-03-30T15:54:38;13.50;90.30
2763;DHT22;1389;51.490;7.338;2023-03-30T16:02:22;13.40;89.50
2763;DHT22;1389;51.490;7.338;2023-03-30T16:04:48;13.40;89.20
2763;DHT22;1389;51.490;7.338;2023-03-30T16:07:17;13.40;88.80
2763;DHT22;1389;51.490;7.338;2023-03-30T16:09:44;13.40;88.90
2763;DHT22;1389;51.490;7.338;2023-03-30T16:12:13;13.40;89.50
2763;DHT22;1389;51.490;7.338;2023-03-30T16:14:40;13.50;89.70
2763;DHT22;1389;51.490;7.338;2023-03-30T16:17:06;13.60;89.60
2763;DHT22;1389;51.490;7.338;2023-03-30T16:19:34;13.60;89.60
2763;DHT22;1389;51.490;7.338;2023-03-30T16:22:00;13.70;90.00
2763;DHT22;1389;51.490;7.338;2023-03-30T16:24:26;13.80;88.80
2763;DHT22;1389;51.490;7.338;2023-03-30T16:26:52;13.80;88.50
2763;DHT22;1389;51.490;7.338;2023-03-30T16:29:20;13.70;88.50
2763;DHT22;1389;51.490;7.338;2023-03-30T16:31:48;13.80;88.50
2763;DHT22;1389;51.490;7.338;2023-03-30T16:34:14;13.70;88.40
2763;DHT22;1389;51.490;7.338;2023-03-30T16:36:40;13.60;88.80
2763;DHT22;1389;51.490;7.338;2023-03-30T16:39:18;13.60;89.30
2763;DHT22;1389;51.490;7.338;2023-03-30T16:41:46;13.60;89.70
2763;DHT22;1389;51.490;7.338;2023-03-30T16:44:13;13.70;90.40
2763;DHT22;1389;51.490;7.338;2023-03-30T16:46:39;13.80;90.50
2763;DHT22;1389;51.490;7.338;2023-03-30T16:49:13;13.90;89.70
2763;DHT22;1389;51.490;7.338;2023-03-30T16:51:40;13.90;89.10
2763;DHT22;1389;51.490;7.338;2023-03-30T16:54:06;13.90;88.70
2763;DHT22;1389;51.490;7.338;2023-03-30T16:56:32;13.80;88.80
2763;DHT22;1389;51.490;7.338;2023-03-30T16:58:59;13.80;88.60
2763;DHT22;1389;51.490;7.338;2023-03-30T17:01:27;13.70;88.40
2763;DHT22;1389;51.490;7.338;2023-03-30T17:03:54;13.70;88.30
2763;DHT22;1389;51.490;7.338;2023-03-30T17:06:20;13.70;88.30
2763;DHT22;1389;51.490;7.338;2023-03-30T17:08:50;13.70;88.20
2763;DHT22;1389;51.490;7.338;2023-03-30T17:13:43;13.60;88.10
2763;DHT22;1389;51.490;7.338;2023-03-30T17:16:13;13.60;88.00
2763;DHT22;1389;51.490;7.338;2023-03-30T17:18:40;13.60;88.30
2763;DHT22;1389;51.490;7.338;2023-03-30T17:21:06;13.50;88.80
2763;DHT22;1389;51.490;7.338;2023-03-30T17:23:34;13.50;89.10
2763;DHT22;1389;51.490;7.338;2023-03-30T17:26:01;13.50;89.10
2763;DHT22;1389;51.490;7.338;2023-03-30T17:28:28;13.50;89.30
2763;DHT22;1389;51.490;7.338;2023-03-30T17:30:59;13.50;89.10
2763;DHT22;1389;51.490;7.338;2023-03-30T17:33:25;13.50;88.50
2763;DHT22;1389;51.490;7.338;2023-03-30T17:36:03;13.60;87.80
2763;DHT22;1389;51.490;7.338;2023-03-30T17:38:29;13.60;87.80
2763;DHT22;1389;51.490;7.338;2023-03-30T17:40:56;13.60;88.00
2763;DHT22;1389;51.490;7.338;2023-03-30T17:43:22;13.60;88.00
2763;DHT22;1389;51.490;7.338;2023-03-30T17:45:48;13.60;88.10
2763;DHT22;1389;51.490;7.338;2023-03-30T17:48:17;13.50;88.00
2763;DHT22;1389;51.490;7.338;2023-03-30T17:50:45;13.50;88.30
2763;DHT22;1389;51.490;7.338;2023-03-30T17:53:12;13.50;88.80
2763;DHT22;1389;51.490;7.338;2023-03-30T17:55:43;13.40;89.00
2763;DHT22;1389;51.490;7.338;2023-03-30T17:58:37;13.30;89.20
2763;DHT22;1389;51.490;7.338;2023-03-30T18:01:06;13.30;89.20
2763;DHT22;1389;51.490;7.338;2023-03-30T18:03:32;13.30;89.10
2763;DHT22;1389;51.490;7.338;2023-03-30T18:06:00;13.20;89.10
2763;DHT22;1389;51.490;7.338;2023-03-30T18:08:27;13.20;89.70
2763;DHT22;1389;51.490;7.338;2023-03-30T18:10:55;13.10;90.20
2763;DHT22;1389;51.490;7.338;2023-03-30T18:13:22;13.10;89.20
2763;DHT22;1389;51.490;7.338;2023-03-30T18:15:50;13.00;89.30
2763;DHT22;1389;51.490;7.338;2023-03-30T18:18:18;13.00;89.60
2763;DHT22;1389;51.490;7.338;2023-03-30T18:20:53;13.00;89.60
2763;DHT22;1389;51.490;7.338;2023-03-30T18:23:20;13.00;89.70
2763;DHT22;1389;51.490;7.338;2023-03-30T18:25:47;13.00;89.40
2763;DHT22;1389;51.490;7.338;2023-03-30T18:28:19;13.10;89.10
2763;DHT22;1389;51.490;7.338;2023-03-30T18:30:46;13.00;88.70
2763;DHT22;1389;51.490;7.338;2023-03-30T18:33:13;13.00;89.20
2763;DHT22;1389;51.490;7.338;2023-03-30T18:35:43;13.00;89.10
2763;DHT22;1389;51.490;7.338;2023-03-30T18:38:11;13.10;89.20
2763;DHT22;1389;51.490;7.338;2023-03-30T18:40:39;13.10;89.20
2763;DHT22;1389;51.490;7.338;2023-03-30T18:43:06;13.20;88.80
2763;DHT22;1389;51.490;7.338;2023-03-30T18:45:34;13.10;88.90
2763;DHT22;1389;51.490;7.338;2023-03-30T18:48:01;13.10;89.10
2763;DHT22;1389;51.490;7.338;2023-03-30T18:53:03;13.10;89.70
2763;DHT22;1389;51.490;7.338;2023-03-30T18:55:31;13.10;89.80
2763;DHT22;1389;51.490;7.338;2023-03-30T18:57:58;13.10;89.80
2763;DHT22;1389;51.490;7.338;2023-03-30T19:00:26;13.10;89.90
2763;DHT22;1389;51.490;7.338;2023-03-30T19:02:53;13.00;90.10
2763;DHT22;1389;51.490;7.338;2023-03-30T19:05:23;13.00;90.20
2763;DHT22;1389;51.490;7.338;2023-03-30T19:07:49;13.00;90.20
2763;DHT22;1389;51.490;7.338;2023-03-30T19:10:18;13.00;90.20
2763;DHT22;1389;51.490;7.338;2023-03-30T19:12:45;12.90;90.00
2763;DHT22;1389;51.490;7.338;2023-03-30T19:15:20;12.90;90.20